PWSweather.com
Personal Weather Stations
Station Observations
RIVERSBEND
Rivers Bend, Heathsville, VA 22473

Rivers BendHeathsville, VA 22473

Lat: 37.87, Lon: -76.39

Elevation: 45

Station Type: Oregon Scientific WMR968

High Low Average
Temperature 64.4°F18.0°C 48.9°F9.4°C 57.5°F14.2°C
Dew Point 45.9°F7.7°C 16.3°F-8.7°C 25.2°F-3.8°C
Winds 4.0 mph 6.4 kmh Calm Calm 2.0 mph SSE3.2 kmh SSE
Wind Gusts 8.7 mph14.0 kmh -- 4.0 mph6.4 kmh
Humidity 72% 18% 33%
Pressure 30.83 in1044.0 mb 30.71 in1040.0 mb -
Precipitation 0.00 in0.0 mm - -
Hour Temp Dew Point Humidity Winds Wind Gusts Pressure Precip Precip Rate Daily Precip Total
12:09 AM 53.2°F11.8°C 32.5°F0.3°C 45% Calm Calm -- 30.77 in1042.0 mb 0.00 in0.0 mm 0.00 in/hr0.0 mm/hr 0.00 in0.0 mm
12:19 AM 53.1°F11.7°C 32.4°F0.2°C 45% Calm Calm -- 30.77 in1042.0 mb 0.00 in0.0 mm 0.00 in/hr0.0 mm/hr 0.00 in0.0 mm
12:39 AM 52.5°F11.4°C 31.3°F-0.4°C 44% Calm Calm -- 30.77 in1042.0 mb 0.00 in0.0 mm 0.00 in/hr0.0 mm/hr 0.00 in0.0 mm
12:49 AM 52.3°F11.3°C 31.1°F-0.5°C 44% Calm Calm -- 30.77 in1042.0 mb 0.00 in0.0 mm 0.00 in/hr0.0 mm/hr 0.00 in0.0 mm
01:00 AM 51.8°F11.0°C 30.6°F-0.8°C 44% Calm Calm -- 30.77 in1042.0 mb 0.00 in0.0 mm 0.00 in/hr0.0 mm/hr 0.00 in0.0 mm
01:10 AM 51.8°F11.0°C 30.6°F-0.8°C 44% Calm Calm -- 30.77 in1042.0 mb 0.00 in0.0 mm 0.00 in/hr0.0 mm/hr 0.00 in0.0 mm
01:20 AM 51.6°F10.9°C 31.5°F-0.3°C 46% Calm Calm -- 30.77 in1042.0 mb 0.00 in0.0 mm 0.00 in/hr0.0 mm/hr 0.00 in0.0 mm
01:30 AM 51.4°F10.8°C 31.3°F-0.4°C 46% Calm Calm -- 30.77 in1042.0 mb 0.00 in0.0 mm 0.00 in/hr0.0 mm/hr 0.00 in0.0 mm
01:40 AM 51.1°F10.6°C 31.1°F-0.5°C 46% Calm Calm -- 30.77 in1042.0 mb 0.00 in0.0 mm 0.00 in/hr0.0 mm/hr 0.00 in0.0 mm
01:50 AM 50.9°F10.5°C 30.9°F-0.6°C 46% Calm Calm -- 30.77 in1042.0 mb 0.00 in0.0 mm 0.00 in/hr0.0 mm/hr 0.00 in0.0 mm
02:00 AM 50.5°F10.3°C 30.6°F-0.8°C 46% Calm Calm -- 30.77 in1042.0 mb 0.00 in0.0 mm 0.00 in/hr0.0 mm/hr 0.00 in0.0 mm
02:10 AM 50.5°F10.3°C 31.1°F-0.5°C 47% Calm Calm -- 30.77 in1042.0 mb 0.00 in0.0 mm 0.00 in/hr0.0 mm/hr 0.00 in0.0 mm
02:31 AM 50.5°F10.3°C 31.1°F-0.5°C 47% Calm Calm -- 30.77 in1042.0 mb 0.00 in0.0 mm 0.00 in/hr0.0 mm/hr 0.00 in0.0 mm
02:41 AM 50.4°F10.2°C 30.9°F-0.6°C 47% Calm Calm -- 30.77 in1042.0 mb 0.00 in0.0 mm 0.00 in/hr0.0 mm/hr 0.00 in0.0 mm
02:51 AM 50.4°F10.2°C 31.5°F-0.3°C 48% Calm Calm -- 30.77 in1042.0 mb 0.00 in0.0 mm 0.00 in/hr0.0 mm/hr 0.00 in0.0 mm
03:02 AM 50.2°F10.1°C 30.7°F-0.7°C 47% Calm Calm -- 30.77 in1042.0 mb 0.00 in0.0 mm 0.00 in/hr0.0 mm/hr 0.00 in0.0 mm
03:12 AM 50.0°F10.0°C 30.6°F-0.8°C 47% Calm Calm -- 30.77 in1042.0 mb 0.00 in0.0 mm 0.00 in/hr0.0 mm/hr 0.00 in0.0 mm
03:22 AM 49.8°F9.9°C 30.9°F-0.6°C 48% Calm Calm -- 30.77 in1042.0 mb 0.00 in0.0 mm 0.00 in/hr0.0 mm/hr 0.00 in0.0 mm
03:32 AM 49.6°F9.8°C 30.2°F-1.0°C 47% Calm Calm -- 30.77 in1042.0 mb 0.00 in0.0 mm 0.00 in/hr0.0 mm/hr 0.00 in0.0 mm
03:42 AM 49.6°F9.8°C 30.2°F-1.0°C 47% Calm Calm -- 30.77 in1042.0 mb 0.00 in0.0 mm 0.00 in/hr0.0 mm/hr 0.00 in0.0 mm
03:52 AM 49.6°F9.8°C 30.7°F-0.7°C 48% Calm Calm -- 30.77 in1042.0 mb 0.00 in0.0 mm 0.00 in/hr0.0 mm/hr 0.00 in0.0 mm
04:02 AM 49.5°F9.7°C 30.6°F-0.8°C 48% Calm Calm -- 30.77 in1042.0 mb 0.00 in0.0 mm 0.00 in/hr0.0 mm/hr 0.00 in0.0 mm
04:12 AM 49.5°F9.7°C 30.6°F-0.8°C 48% Calm Calm -- 30.77 in1042.0 mb 0.00 in0.0 mm 0.00 in/hr0.0 mm/hr 0.00 in0.0 mm
04:22 AM 49.5°F9.7°C 31.1°F-0.5°C 49% Calm Calm -- 30.77 in1042.0 mb 0.00 in0.0 mm 0.00 in/hr0.0 mm/hr 0.00 in0.0 mm
04:32 AM 49.3°F9.6°C 30.9°F-0.6°C 49% Calm Calm -- 30.77 in1042.0 mb 0.00 in0.0 mm 0.00 in/hr0.0 mm/hr 0.00 in0.0 mm
04:42 AM 49.3°F9.6°C 30.4°F-0.9°C 48% Calm Calm -- 30.77 in1042.0 mb 0.00 in0.0 mm 0.00 in/hr0.0 mm/hr 0.00 in0.0 mm
04:52 AM 49.1°F9.5°C 30.2°F-1.0°C 48% Calm Calm -- 30.77 in1042.0 mb 0.00 in0.0 mm 0.00 in/hr0.0 mm/hr 0.00 in0.0 mm
05:02 AM 49.1°F9.5°C 30.7°F-0.7°C 49% Calm Calm -- 30.77 in1042.0 mb 0.00 in0.0 mm 0.00 in/hr0.0 mm/hr 0.00 in0.0 mm
05:12 AM 48.9°F9.4°C 30.0°F-1.1°C 48% Calm Calm -- 30.77 in1042.0 mb 0.00 in0.0 mm 0.00 in/hr0.0 mm/hr 0.00 in0.0 mm
05:22 AM 48.9°F9.4°C 30.6°F-0.8°C 49% Calm Calm -- 30.77 in1042.0 mb 0.00 in0.0 mm 0.00 in/hr0.0 mm/hr 0.00 in0.0 mm
05:32 AM 49.1°F9.5°C 31.3°F-0.4°C 50% Calm Calm -- 30.77 in1042.0 mb 0.00 in0.0 mm 0.00 in/hr0.0 mm/hr 0.00 in0.0 mm
05:42 AM 49.3°F9.6°C 32.0°F0.0°C 51% Calm Calm -- 30.77 in1042.0 mb 0.00 in0.0 mm 0.00 in/hr0.0 mm/hr 0.00 in0.0 mm
05:52 AM 49.5°F9.7°C 32.5°F0.3°C 52% Calm Calm 4.0 mph6.4 kmh 30.77 in1042.0 mb 0.00 in0.0 mm 0.00 in/hr0.0 mm/hr 0.00 in0.0 mm
06:02 AM 50.7°F10.4°C 40.1°F4.5°C 67% Calm Calm 3.6 mph5.8 kmh 30.77 in1042.0 mb 0.00 in0.0 mm 0.00 in/hr0.0 mm/hr 0.00 in0.0 mm
06:12 AM 51.1°F10.6°C 41.2°F5.1°C 69% Calm Calm -- 30.83 in1044.0 mb 0.00 in0.0 mm 0.00 in/hr0.0 mm/hr 0.00 in0.0 mm
06:22 AM 51.3°F10.7°C 41.9°F5.5°C 70% Calm Calm -- 30.83 in1044.0 mb 0.00 in0.0 mm 0.00 in/hr0.0 mm/hr 0.00 in0.0 mm
06:32 AM 51.6°F10.9°C 42.1°F5.6°C 70% Calm Calm -- 30.77 in1042.0 mb 0.00 in0.0 mm 0.00 in/hr0.0 mm/hr 0.00 in0.0 mm
06:42 AM 52.0°F11.1°C 42.4°F5.8°C 70% Calm Calm -- 30.83 in1044.0 mb 0.00 in0.0 mm 0.00 in/hr0.0 mm/hr 0.00 in0.0 mm
06:52 AM 52.5°F11.4°C 43.0°F6.1°C 70% Calm Calm -- 30.83 in1044.0 mb 0.00 in0.0 mm 0.00 in/hr0.0 mm/hr 0.00 in0.0 mm
07:02 AM 52.9°F11.6°C 43.3°F6.3°C 70% Calm Calm -- 30.83 in1044.0 mb 0.00 in0.0 mm 0.00 in/hr0.0 mm/hr 0.00 in0.0 mm
07:12 AM 53.1°F11.7°C 43.9°F6.6°C 71% Calm Calm -- 30.83 in1044.0 mb 0.00 in0.0 mm 0.00 in/hr0.0 mm/hr 0.00 in0.0 mm
07:22 AM 53.6°F12.0°C 44.4°F6.9°C 71% Calm Calm -- 30.83 in1044.0 mb 0.00 in0.0 mm 0.00 in/hr0.0 mm/hr 0.00 in0.0 mm
07:32 AM 54.3°F12.4°C 45.5°F7.5°C 72% Calm Calm -- 30.83 in1044.0 mb 0.00 in0.0 mm 0.00 in/hr0.0 mm/hr 0.00 in0.0 mm
07:42 AM 54.7°F12.6°C 45.9°F7.7°C 72% Calm Calm -- 30.83 in1044.0 mb 0.00 in0.0 mm 0.00 in/hr0.0 mm/hr 0.00 in0.0 mm
07:52 AM 54.7°F12.6°C 37.9°F3.3°C 53% Calm Calm -- 30.83 in1044.0 mb 0.00 in0.0 mm 0.00 in/hr0.0 mm/hr 0.00 in0.0 mm
08:02 AM 55.4°F13.0°C 29.5°F-1.4°C 37% Calm Calm 3.6 mph5.8 kmh 30.83 in1044.0 mb 0.00 in0.0 mm 0.00 in/hr0.0 mm/hr 0.00 in0.0 mm
08:12 AM 55.6°F13.1°C 30.4°F-0.9°C 38% Calm Calm 3.1 mph5.0 kmh 30.83 in1044.0 mb 0.00 in0.0 mm 0.00 in/hr0.0 mm/hr 0.00 in0.0 mm
08:22 AM 55.9°F13.3°C 30.0°F-1.1°C 37% Calm Calm 2.2 mph3.5 kmh 30.83 in1044.0 mb 0.00 in0.0 mm 0.00 in/hr0.0 mm/hr 0.00 in0.0 mm
08:32 AM 56.1°F13.4°C 28.8°F-1.8°C 35% Calm Calm 3.6 mph5.8 kmh 30.83 in1044.0 mb 0.00 in0.0 mm 0.00 in/hr0.0 mm/hr 0.00 in0.0 mm
08:42 AM 56.3°F13.5°C 24.4°F-4.2°C 29% 1.0 mph SSE1.6 kmh SSE 3.6 mph5.8 kmh 30.83 in1044.0 mb 0.00 in0.0 mm 0.00 in/hr0.0 mm/hr 0.00 in0.0 mm
08:52 AM 56.3°F13.5°C 22.8°F-5.1°C 27% 2.0 mph SSE3.2 kmh SSE 4.0 mph6.4 kmh 30.83 in1044.0 mb 0.00 in0.0 mm 0.00 in/hr0.0 mm/hr 0.00 in0.0 mm
09:02 AM 56.5°F13.6°C 21.0°F-6.1°C 25% 2.0 mph SSE3.2 kmh SSE 4.0 mph6.4 kmh 30.83 in1044.0 mb 0.00 in0.0 mm 0.00 in/hr0.0 mm/hr 0.00 in0.0 mm
09:12 AM 56.7°F13.7°C 18.3°F-7.6°C 22% 2.0 mph SSE3.2 kmh SSE 3.6 mph5.8 kmh 30.83 in1044.0 mb 0.00 in0.0 mm 0.00 in/hr0.0 mm/hr 0.00 in0.0 mm
09:22 AM 57.0°F13.9°C 21.6°F-5.8°C 25% 2.0 mph SSE3.2 kmh SSE 4.0 mph6.4 kmh 30.83 in1044.0 mb 0.00 in0.0 mm 0.00 in/hr0.0 mm/hr 0.00 in0.0 mm
09:32 AM 57.9°F14.4°C 19.4°F-7.0°C 22% 2.0 mph SSE3.2 kmh SSE 5.8 mph9.3 kmh 30.83 in1044.0 mb 0.00 in0.0 mm 0.00 in/hr0.0 mm/hr 0.00 in0.0 mm
09:43 AM 58.1°F14.5°C 19.4°F-7.0°C 22% 3.0 mph SSE4.8 kmh SSE 5.4 mph8.7 kmh 30.83 in1044.0 mb 0.00 in0.0 mm 0.00 in/hr0.0 mm/hr 0.00 in0.0 mm
09:53 AM 58.5°F14.7°C 16.3°F-8.7°C 19% 3.0 mph SE4.8 kmh SE 5.8 mph9.3 kmh 30.83 in1044.0 mb 0.00 in0.0 mm 0.00 in/hr0.0 mm/hr 0.00 in0.0 mm
10:03 AM 58.6°F14.8°C 16.5°F-8.6°C 19% 3.0 mph SE4.8 kmh SE 6.3 mph10.1 kmh 30.83 in1044.0 mb 0.00 in0.0 mm 0.00 in/hr0.0 mm/hr 0.00 in0.0 mm
10:13 AM 59.5°F15.3°C 17.2°F-8.2°C 19% 4.0 mph SE6.4 kmh SE 7.6 mph12.2 kmh 30.83 in1044.0 mb 0.00 in0.0 mm 0.00 in/hr0.0 mm/hr 0.00 in0.0 mm
10:23 AM 60.6°F15.9°C 18.1°F-7.7°C 19% 4.0 mph SE6.4 kmh SE 7.2 mph11.6 kmh 30.83 in1044.0 mb 0.00 in0.0 mm 0.00 in/hr0.0 mm/hr 0.00 in0.0 mm
10:33 AM 60.8°F16.0°C 20.7°F-6.3°C 21% 3.0 mph SE4.8 kmh SE 6.3 mph10.1 kmh 30.83 in1044.0 mb 0.00 in0.0 mm 0.00 in/hr0.0 mm/hr 0.00 in0.0 mm
10:43 AM 60.8°F16.0°C 18.3°F-7.6°C 19% 4.0 mph SE6.4 kmh SE 6.7 mph10.8 kmh 30.83 in1044.0 mb 0.00 in0.0 mm 0.00 in/hr0.0 mm/hr 0.00 in0.0 mm
10:53 AM 60.3°F15.7°C 21.2°F-6.0°C 22% 4.0 mph SSE6.4 kmh SSE 5.8 mph9.3 kmh 30.83 in1044.0 mb 0.00 in0.0 mm 0.00 in/hr0.0 mm/hr 0.00 in0.0 mm
11:03 AM 59.7°F15.4°C 17.4°F-8.1°C 19% 4.0 mph SSE6.4 kmh SSE 6.3 mph10.1 kmh 30.83 in1044.0 mb 0.00 in0.0 mm 0.00 in/hr0.0 mm/hr 0.00 in0.0 mm
11:13 AM 60.1°F15.6°C 17.8°F-7.9°C 19% 4.0 mph SSE6.4 kmh SSE 6.3 mph10.1 kmh 30.83 in1044.0 mb 0.00 in0.0 mm 0.00 in/hr0.0 mm/hr 0.00 in0.0 mm
11:23 AM 60.1°F15.6°C 21.2°F-6.0°C 22% 4.0 mph SSE6.4 kmh SSE 5.8 mph9.3 kmh 30.83 in1044.0 mb 0.00 in0.0 mm 0.00 in/hr0.0 mm/hr 0.00 in0.0 mm
11:33 AM 61.0°F16.1°C 18.5°F-7.5°C 19% 3.0 mph SSE4.8 kmh SSE 4.9 mph7.9 kmh 30.83 in1044.0 mb 0.00 in0.0 mm 0.00 in/hr0.0 mm/hr 0.00 in0.0 mm
11:43 AM 61.2°F16.2°C 20.8°F-6.2°C 21% 3.0 mph SSE4.8 kmh SSE 6.3 mph10.1 kmh 30.83 in1044.0 mb 0.00 in0.0 mm 0.00 in/hr0.0 mm/hr 0.00 in0.0 mm
11:53 AM 62.1°F16.7°C 19.4°F-7.0°C 19% 3.0 mph SSE4.8 kmh SSE 7.6 mph12.2 kmh 30.83 in1044.0 mb 0.00 in0.0 mm 0.00 in/hr0.0 mm/hr 0.00 in0.0 mm
12:03 PM 62.1°F16.7°C 19.4°F-7.0°C 19% 3.0 mph SSE4.8 kmh SSE 6.3 mph10.1 kmh 30.83 in1044.0 mb 0.00 in0.0 mm 0.00 in/hr0.0 mm/hr 0.00 in0.0 mm
12:13 PM 61.7°F16.5°C 19.0°F-7.2°C 19% 3.0 mph SE4.8 kmh SE 6.3 mph10.1 kmh 30.83 in1044.0 mb 0.00 in0.0 mm 0.00 in/hr0.0 mm/hr 0.00 in0.0 mm
12:23 PM 62.4°F16.9°C 21.9°F-5.6°C 21% 3.0 mph SE4.8 kmh SE 5.8 mph9.3 kmh 30.83 in1044.0 mb 0.00 in0.0 mm 0.00 in/hr0.0 mm/hr 0.00 in0.0 mm
12:33 PM 62.2°F16.8°C 19.4°F-7.0°C 19% 3.0 mph SSE4.8 kmh SSE 6.3 mph10.1 kmh 30.83 in1044.0 mb 0.00 in0.0 mm 0.00 in/hr0.0 mm/hr 0.00 in0.0 mm
12:43 PM 62.4°F16.9°C 21.9°F-5.6°C 21% 3.0 mph SSE4.8 kmh SSE 4.9 mph7.9 kmh 30.83 in1044.0 mb 0.00 in0.0 mm 0.00 in/hr0.0 mm/hr 0.00 in0.0 mm
12:53 PM 62.4°F16.9°C 19.6°F-6.9°C 19% 3.0 mph SSE4.8 kmh SSE 4.0 mph6.4 kmh 30.83 in1044.0 mb 0.00 in0.0 mm 0.00 in/hr0.0 mm/hr 0.00 in0.0 mm
01:03 PM 62.6°F17.0°C 22.1°F-5.5°C 21% 3.0 mph SSE4.8 kmh SSE 7.6 mph12.2 kmh 30.83 in1044.0 mb 0.00 in0.0 mm 0.00 in/hr0.0 mm/hr 0.00 in0.0 mm
01:13 PM 61.9°F16.6°C 21.6°F-5.8°C 21% 3.0 mph SSE4.8 kmh SSE 5.8 mph9.3 kmh 30.83 in1044.0 mb 0.00 in0.0 mm 0.00 in/hr0.0 mm/hr 0.00 in0.0 mm
01:23 PM 61.7°F16.5°C 19.0°F-7.2°C 19% 3.0 mph SSE4.8 kmh SSE 6.3 mph10.1 kmh 30.83 in1044.0 mb 0.00 in0.0 mm 0.00 in/hr0.0 mm/hr 0.00 in0.0 mm
01:34 PM 63.3°F17.4°C 19.0°F-7.2°C 18% 4.0 mph SSE6.4 kmh SSE 6.3 mph10.1 kmh 30.83 in1044.0 mb 0.00 in0.0 mm 0.00 in/hr0.0 mm/hr 0.00 in0.0 mm
01:44 PM 63.3°F17.4°C 19.0°F-7.2°C 18% 4.0 mph SSE6.4 kmh SSE 5.8 mph9.3 kmh 30.83 in1044.0 mb 0.00 in0.0 mm 0.00 in/hr0.0 mm/hr 0.00 in0.0 mm
01:54 PM 64.2°F17.9°C 19.8°F-6.8°C 18% 4.0 mph SSE6.4 kmh SSE 8.1 mph13.0 kmh 30.83 in1044.0 mb 0.00 in0.0 mm 0.00 in/hr0.0 mm/hr 0.00 in0.0 mm
02:04 PM 64.4°F18.0°C 19.9°F-6.7°C 18% 4.0 mph SSE6.4 kmh SSE 7.6 mph12.2 kmh 30.83 in1044.0 mb 0.00 in0.0 mm 0.00 in/hr0.0 mm/hr 0.00 in0.0 mm
02:14 PM 63.9°F17.7°C 19.6°F-6.9°C 18% 4.0 mph SSE6.4 kmh SSE 8.7 mph14.0 kmh 30.77 in1042.0 mb 0.00 in0.0 mm 0.00 in/hr0.0 mm/hr 0.00 in0.0 mm
02:24 PM 64.2°F17.9°C 19.8°F-6.8°C 18% 4.0 mph SSE6.4 kmh SSE 6.3 mph10.1 kmh 30.77 in1042.0 mb 0.00 in0.0 mm 0.00 in/hr0.0 mm/hr 0.00 in0.0 mm
02:34 PM 64.2°F17.9°C 19.8°F-6.8°C 18% 4.0 mph SSE6.4 kmh SSE 6.3 mph10.1 kmh 30.77 in1042.0 mb 0.00 in0.0 mm 0.00 in/hr0.0 mm/hr 0.00 in0.0 mm
02:44 PM 64.2°F17.9°C 19.8°F-6.8°C 18% 4.0 mph SSE6.4 kmh SSE 5.8 mph9.3 kmh 30.77 in1042.0 mb 0.00 in0.0 mm 0.00 in/hr0.0 mm/hr 0.00 in0.0 mm
02:54 PM 64.4°F18.0°C 19.9°F-6.7°C 18% 4.0 mph SSE6.4 kmh SSE 6.3 mph10.1 kmh 30.77 in1042.0 mb 0.00 in0.0 mm 0.00 in/hr0.0 mm/hr 0.00 in0.0 mm
03:04 PM 64.0°F17.8°C 19.8°F-6.8°C 18% 4.0 mph SSE6.4 kmh SSE 6.3 mph10.1 kmh 30.77 in1042.0 mb 0.00 in0.0 mm 0.00 in/hr0.0 mm/hr 0.00 in0.0 mm
03:14 PM 64.2°F17.9°C 19.8°F-6.8°C 18% 4.0 mph SSE6.4 kmh SSE 6.3 mph10.1 kmh 30.77 in1042.0 mb 0.00 in0.0 mm 0.00 in/hr0.0 mm/hr 0.00 in0.0 mm
03:24 PM 63.9°F17.7°C 19.6°F-6.9°C 18% 4.0 mph SSE6.4 kmh SSE 6.3 mph10.1 kmh 30.77 in1042.0 mb 0.00 in0.0 mm 0.00 in/hr0.0 mm/hr 0.00 in0.0 mm
03:34 PM 63.7°F17.6°C 19.4°F-7.0°C 18% 3.0 mph SSE4.8 kmh SSE 6.3 mph10.1 kmh 30.77 in1042.0 mb 0.00 in0.0 mm 0.00 in/hr0.0 mm/hr 0.00 in0.0 mm
03:44 PM 63.9°F17.7°C 19.6°F-6.9°C 18% 4.0 mph SSE6.4 kmh SSE 6.3 mph10.1 kmh 30.77 in1042.0 mb 0.00 in0.0 mm 0.00 in/hr0.0 mm/hr 0.00 in0.0 mm
03:54 PM 64.0°F17.8°C 19.8°F-6.8°C 18% 4.0 mph SSE6.4 kmh SSE 8.3 mph13.4 kmh 30.77 in1042.0 mb 0.00 in0.0 mm 0.00 in/hr0.0 mm/hr 0.00 in0.0 mm
04:04 PM 63.7°F17.6°C 19.4°F-7.0°C 18% 4.0 mph SSE6.4 kmh SSE 7.2 mph11.6 kmh 30.77 in1042.0 mb 0.00 in0.0 mm 0.00 in/hr0.0 mm/hr 0.00 in0.0 mm
04:14 PM 63.1°F17.3°C 19.0°F-7.2°C 18% 4.0 mph SSE6.4 kmh SSE 7.6 mph12.2 kmh 30.77 in1042.0 mb 0.00 in0.0 mm 0.00 in/hr0.0 mm/hr 0.00 in0.0 mm
04:24 PM 63.1°F17.3°C 19.0°F-7.2°C 18% 4.0 mph SSE6.4 kmh SSE 6.7 mph10.8 kmh 30.77 in1042.0 mb 0.00 in0.0 mm 0.00 in/hr0.0 mm/hr 0.00 in0.0 mm
04:34 PM 63.0°F17.2°C 18.9°F-7.3°C 18% 4.0 mph SSE6.4 kmh SSE 6.3 mph10.1 kmh 30.77 in1042.0 mb 0.00 in0.0 mm 0.00 in/hr0.0 mm/hr 0.00 in0.0 mm
04:44 PM 62.8°F17.1°C 18.7°F-7.4°C 18% 4.0 mph SSE6.4 kmh SSE 6.3 mph10.1 kmh 30.77 in1042.0 mb 0.00 in0.0 mm 0.00 in/hr0.0 mm/hr 0.00 in0.0 mm
04:54 PM 62.8°F17.1°C 18.7°F-7.4°C 18% 4.0 mph SSE6.4 kmh SSE 8.3 mph13.4 kmh 30.77 in1042.0 mb 0.00 in0.0 mm 0.00 in/hr0.0 mm/hr 0.00 in0.0 mm
05:05 PM 63.1°F17.3°C 19.0°F-7.2°C 18% 4.0 mph SSE6.4 kmh SSE 5.8 mph9.3 kmh 30.77 in1042.0 mb 0.00 in0.0 mm 0.00 in/hr0.0 mm/hr 0.00 in0.0 mm
05:15 PM 63.0°F17.2°C 18.9°F-7.3°C 18% 4.0 mph SSE6.4 kmh SSE 6.3 mph10.1 kmh 30.71 in1040.0 mb 0.00 in0.0 mm 0.00 in/hr0.0 mm/hr 0.00 in0.0 mm
05:25 PM 63.0°F17.2°C 18.9°F-7.3°C 18% 4.0 mph SSE6.4 kmh SSE 5.8 mph9.3 kmh 30.71 in1040.0 mb 0.00 in0.0 mm 0.00 in/hr0.0 mm/hr 0.00 in0.0 mm
05:35 PM 63.1°F17.3°C 19.0°F-7.2°C 18% 3.0 mph SSE4.8 kmh SSE 4.9 mph7.9 kmh 30.71 in1040.0 mb 0.00 in0.0 mm 0.00 in/hr0.0 mm/hr 0.00 in0.0 mm
05:45 PM 62.8°F17.1°C 18.7°F-7.4°C 18% 3.0 mph SSE4.8 kmh SSE 6.3 mph10.1 kmh 30.71 in1040.0 mb 0.00 in0.0 mm 0.00 in/hr0.0 mm/hr 0.00 in0.0 mm
05:55 PM 62.6°F17.0°C 18.5°F-7.5°C 18% 3.0 mph SSE4.8 kmh SSE 5.8 mph9.3 kmh 30.71 in1040.0 mb 0.00 in0.0 mm 0.00 in/hr0.0 mm/hr 0.00 in0.0 mm
06:05 PM 62.4°F16.9°C 19.6°F-6.9°C 19% 3.0 mph SSE4.8 kmh SSE 8.3 mph13.4 kmh 30.71 in1040.0 mb 0.00 in0.0 mm 0.00 in/hr0.0 mm/hr 0.00 in0.0 mm
06:15 PM 62.2°F16.8°C 19.4°F-7.0°C 19% 3.0 mph SSE4.8 kmh SSE 5.8 mph9.3 kmh 30.71 in1040.0 mb 0.00 in0.0 mm 0.00 in/hr0.0 mm/hr 0.00 in0.0 mm
06:25 PM 61.9°F16.6°C 19.2°F-7.1°C 19% 3.0 mph SSE4.8 kmh SSE 4.9 mph7.9 kmh 30.71 in1040.0 mb 0.00 in0.0 mm 0.00 in/hr0.0 mm/hr 0.00 in0.0 mm
06:35 PM 61.7°F16.5°C 19.0°F-7.2°C 19% 3.0 mph SSE4.8 kmh SSE 5.8 mph9.3 kmh 30.71 in1040.0 mb 0.00 in0.0 mm 0.00 in/hr0.0 mm/hr 0.00 in0.0 mm
06:45 PM 61.3°F16.3°C 18.7°F-7.4°C 19% 3.0 mph SSE4.8 kmh SSE 4.9 mph7.9 kmh 30.71 in1040.0 mb 0.00 in0.0 mm 0.00 in/hr0.0 mm/hr 0.00 in0.0 mm
06:55 PM 61.2°F16.2°C 18.5°F-7.5°C 19% 3.0 mph SSE4.8 kmh SSE 4.0 mph6.4 kmh 30.71 in1040.0 mb 0.00 in0.0 mm 0.00 in/hr0.0 mm/hr 0.00 in0.0 mm
07:05 PM 61.2°F16.2°C 18.5°F-7.5°C 19% 3.0 mph SSE4.8 kmh SSE 4.5 mph7.2 kmh 30.71 in1040.0 mb 0.00 in0.0 mm 0.00 in/hr0.0 mm/hr 0.00 in0.0 mm
07:15 PM 61.0°F16.1°C 18.5°F-7.5°C 19% 2.0 mph SSE3.2 kmh SSE 4.9 mph7.9 kmh 30.71 in1040.0 mb 0.00 in0.0 mm 0.00 in/hr0.0 mm/hr 0.00 in0.0 mm
07:25 PM 61.0°F16.1°C 18.5°F-7.5°C 19% 2.0 mph SSE3.2 kmh SSE 4.0 mph6.4 kmh 30.71 in1040.0 mb 0.00 in0.0 mm 0.00 in/hr0.0 mm/hr 0.00 in0.0 mm
07:35 PM 60.6°F15.9°C 18.1°F-7.7°C 19% 3.0 mph SSE4.8 kmh SSE 5.8 mph9.3 kmh 30.71 in1040.0 mb 0.00 in0.0 mm 0.00 in/hr0.0 mm/hr 0.00 in0.0 mm
07:45 PM 60.6°F15.9°C 18.1°F-7.7°C 19% 3.0 mph SSE4.8 kmh SSE 6.3 mph10.1 kmh 30.71 in1040.0 mb 0.00 in0.0 mm 0.00 in/hr0.0 mm/hr 0.00 in0.0 mm
07:55 PM 60.6°F15.9°C 18.1°F-7.7°C 19% 3.0 mph SSE4.8 kmh SSE 4.0 mph6.4 kmh 30.71 in1040.0 mb 0.00 in0.0 mm 0.00 in/hr0.0 mm/hr 0.00 in0.0 mm